Time;durP1;ratioP1;P1;durP2;ratioP2;P2;SDS_P1;SDS_P2;PMS_P1;PMS_P2;Temp;Humidity;BMP_temperature;BMP_pressure;BME280_temperature;BME280_humidity;BME280_pressure;Samples;Min_cycle;Max_cycle;Signal;HPM_P1;HPM_P2
2022/06/23 00:01:01;;;;;;;11.20;9.30;;;21.00;72.00;;;;;;5018636;28;20575;-83
2022/06/23 00:03:34;;;;;;;12.00;8.03;;;20.90;71.90;;;;;;5018948;28;20575;-81
2022/06/23 00:06:06;;;;;;;13.00;8.57;;;20.90;72.00;;;;;;5019225;28;20448;-81
2022/06/23 00:08:43;;;;;;;17.10;9.30;;;20.80;72.00;;;;;;5017799;28;20456;-81
2022/06/23 00:11:21;;;;;;;11.77;7.70;;;20.70;72.10;;;;;;5011594;28;20839;-81
2022/06/23 00:13:54;;;;;;;15.43;7.43;;;20.70;72.20;;;;;;5002035;28;20468;-81
2022/06/23 00:16:25;;;;;;;13.70;9.30;;;20.70;72.20;;;;;;5018443;28;20575;-81
2022/06/23 00:18:54;;;;;;;11.63;7.93;;;20.70;72.30;;;;;;5022040;28;20463;-82
2022/06/23 00:21:24;;;;;;;13.60;8.63;;;20.70;72.40;;;;;;5021901;28;20474;-82
2022/06/23 00:23:55;;;;;;;12.53;9.13;;;20.70;72.60;;;;;;5019435;28;20471;-82
2022/06/23 00:26:27;;;;;;;11.37;8.97;;;20.70;72.70;;;;;;5018957;28;20466;-82
2022/06/23 00:29:00;;;;;;;11.60;8.40;;;20.70;72.70;;;;;;5012753;28;20546;-82
2022/06/23 00:31:32;;;;;;;9.63;7.63;;;20.80;72.50;;;;;;5018195;28;20521;-81
2022/06/23 00:34:02;;;;;;;13.00;8.83;;;20.70;72.30;;;;;;5015626;28;21109;-82
2022/06/23 00:36:35;;;;;;;11.50;7.93;;;20.60;72.20;;;;;;5020414;28;20493;-82
2022/06/23 00:39:05;;;;;;;11.70;8.30;;;20.60;72.10;;;;;;5019555;28;20454;-82
2022/06/23 00:41:36;;;;;;;12.20;8.10;;;20.50;72.20;;;;;;5002381;28;20987;-82
2022/06/23 00:44:09;;;;;;;12.33;8.73;;;20.50;72.30;;;;;;5016839;28;20460;-82
2022/06/23 00:46:46;;;;;;;11.17;7.93;;;20.50;72.40;;;;;;5019454;28;20482;-82
2022/06/23 00:49:25;;;;;;;13.33;8.57;;;20.50;72.50;;;;;;5016642;28;21164;-81
2022/06/23 00:51:57;;;;;;;11.53;8.10;;;20.50;72.60;;;;;;5024371;28;20474;-82
2022/06/23 00:54:29;;;;;;;11.87;8.20;;;20.50;72.50;;;;;;5019916;28;20682;-82
2022/06/23 00:57:04;;;;;;;10.20;8.13;;;20.50;72.40;;;;;;5021065;28;20477;-81
2022/06/23 00:59:38;;;;;;;10.17;7.77;;;20.50;72.30;;;;;;5018729;28;20871;-82
2022/06/23 01:02:10;;;;;;;11.87;8.67;;;20.40;72.20;;;;;;5017148;28;20501;-82
2022/06/23 01:04:46;;;;;;;11.87;7.90;;;20.40;72.20;;;;;;5018764;28;20467;-82
2022/06/23 01:07:30;;;;;;;14.63;9.10;;;20.30;72.20;;;;;;5027207;28;20449;-82
2022/06/23 01:10:06;;;;;;;14.90;9.20;;;20.20;72.20;;;;;;5022141;28;21249;-82
2022/06/23 01:12:40;;;;;;;13.73;8.53;;;20.20;72.20;;;;;;5019964;28;20483;-82
2022/06/23 01:15:21;;;;;;;12.70;8.37;;;20.10;72.20;;;;;;5012170;28;20811;-81
2022/06/23 01:17:52;;;;;;;14.47;9.10;;;20.10;72.30;;;;;;5021112;28;20479;-81
2022/06/23 01:20:32;;;;;;;13.17;9.53;;;20.00;72.50;;;;;;5019490;28;20460;-83
2022/06/23 01:23:18;;;;;;;11.50;8.37;;;20.10;72.50;;;;;;5024835;28;20483;-83
2022/06/23 01:26:18;;;;;;;11.67;8.80;;;20.00;72.70;;;;;;5023118;28;20460;-83
2022/06/23 01:28:48;;;;;;;14.30;8.43;;;20.10;72.80;;;;;;5020491;28;20465;-82
2022/06/23 01:31:20;;;;;;;11.83;8.73;;;20.10;72.80;;;;;;5022571;28;20477;-82
2022/06/23 01:33:55;;;;;;;15.17;9.47;;;20.10;72.90;;;;;;5020367;28;21011;-82
2022/06/23 01:36:30;;;;;;;12.70;8.43;;;20.20;72.90;;;;;;5013788;28;20486;-82
2022/06/23 01:39:04;;;;;;;13.77;8.60;;;20.20;72.80;;;;;;5009004;28;20465;-83
2022/06/23 01:41:38;;;;;;;11.93;8.60;;;20.20;72.70;;;;;;5021726;28;20459;-83
2022/06/23 01:44:15;;;;;;;12.83;8.37;;;20.10;72.60;;;;;;5018696;28;20485;-82
2022/06/23 01:46:46;;;;;;;11.83;8.27;;;20.00;72.50;;;;;;5024994;28;20464;-83
2022/06/23 01:49:19;;;;;;;19.43;9.17;;;20.00;72.50;;;;;;5021322;28;20463;-82
2022/06/23 01:51:50;;;;;;;14.00;8.80;;;20.00;72.50;;;;;;5016998;28;20501;-82
2022/06/23 01:54:24;;;;;;;13.27;8.57;;;19.90;72.40;;;;;;5019609;28;20467;-82
2022/06/23 01:57:00;;;;;;;15.70;9.53;;;19.90;72.40;;;;;;5022050;28;20935;-82
2022/06/23 01:59:47;;;;;;;13.37;8.83;;;19.80;72.60;;;;;;5020185;28;20467;-82
2022/06/23 02:02:30;;;;;;;15.10;9.50;;;19.70;72.80;;;;;;5014878;28;20569;-82
2022/06/23 02:05:03;;;;;;;15.50;9.30;;;19.70;72.80;;;;;;5019934;28;20518;-82
2022/06/23 02:07:35;;;;;;;13.80;9.13;;;19.70;73.10;;;;;;5021211;28;20487;-82
2022/06/23 02:10:10;;;;;;;12.13;8.77;;;19.70;73.30;;;;;;5011604;28;20459;-82
2022/06/23 02:12:46;;;;;;;16.90;9.60;;;19.70;73.30;;;;;;5015757;28;20490;-82
2022/06/23 02:15:24;;;;;;;13.50;9.17;;;19.80;73.40;;;;;;5001691;28;20458;-82
2022/06/23 02:17:59;;;;;;;12.33;9.37;;;19.70;73.30;;;;;;5023652;28;20481;-82
2022/06/23 02:20:42;;;;;;;12.30;8.77;;;19.60;73.40;;;;;;5003647;28;20483;-82
2022/06/23 02:23:22;;;;;;;11.00;9.03;;;19.60;73.50;;;;;;5022432;28;20490;-83
2022/06/23 02:25:56;;;;;;;14.57;9.03;;;19.60;73.60;;;;;;5015114;28;20477;-82
2022/06/23 02:28:35;;;;;;;13.37;8.60;;;19.60;73.60;;;;;;5016697;28;20460;-83
2022/06/23 02:31:14;;;;;;;12.10;8.77;;;19.60;73.60;;;;;;5022722;28;20481;-82
2022/06/23 02:33:50;;;;;;;13.77;7.90;;;19.50;73.50;;;;;;5020160;28;22133;-81
2022/06/23 02:36:28;;;;;;;12.60;9.17;;;19.50;73.30;;;;;;5017207;28;20961;-81
2022/06/23 02:38:59;;;;;;;13.60;8.70;;;19.50;73.20;;;;;;5018987;28;20475;-82
2022/06/23 02:41:33;;;;;;;13.43;8.37;;;19.40;73.30;;;;;;5020447;28;20462;-82
2022/06/23 02:44:20;;;;;;;12.10;8.93;;;19.40;73.30;;;;;;5022065;28;20532;-82
2022/06/23 02:47:07;;;;;;;13.90;9.93;;;19.40;73.30;;;;;;5019397;28;20473;-82
2022/06/23 02:50:03;;;;;;;14.03;8.93;;;19.40;73.30;;;;;;5014063;28;20568;-82
2022/06/23 02:52:49;;;;;;;15.57;9.90;;;19.30;73.30;;;;;;5009172;28;20497;-82
2022/06/23 02:55:27;;;;;;;16.90;8.63;;;19.30;73.30;;;;;;5025484;28;20453;-81
2022/06/23 02:58:03;;;;;;;12.27;9.10;;;19.30;73.30;;;;;;5023020;28;21077;-81
2022/06/23 03:00:41;;;;;;;16.23;10.13;;;19.30;73.30;;;;;;5025885;28;21410;-80
2022/06/23 03:03:17;;;;;;;14.83;8.97;;;19.30;73.20;;;;;;5025623;28;20492;-80
2022/06/23 03:05:49;;;;;;;16.00;9.47;;;19.30;73.10;;;;;;5023054;28;20470;-82
2022/06/23 03:08:27;;;;;;;13.37;8.53;;;19.20;73.10;;;;;;5026597;28;20458;-81
2022/06/23 03:10:58;;;;;;;12.40;8.77;;;19.20;73.00;;;;;;5026585;28;20471;-82
2022/06/23 03:13:34;;;;;;;12.03;7.90;;;19.20;72.90;;;;;;5026887;28;20473;-82
2022/06/23 03:16:09;;;;;;;13.80;8.83;;;19.10;72.90;;;;;;5025345;28;20461;-84
2022/06/23 03:18:50;;;;;;;10.77;8.00;;;19.10;72.90;;;;;;5029779;28;20534;-83
2022/06/23 03:21:23;;;;;;;13.40;9.33;;;19.10;72.90;;;;;;5017914;28;20456;-83
2022/06/23 03:23:56;;;;;;;13.10;9.83;;;19.10;73.10;;;;;;5018002;28;20577;-82
2022/06/23 03:26:30;;;;;;;15.23;9.77;;;19.10;73.20;;;;;;5016095;28;20473;-82
2022/06/23 03:29:05;;;;;;;14.43;10.20;;;19.10;73.40;;;;;;5021351;28;20462;-81
2022/06/23 03:31:41;;;;;;;17.13;9.40;;;19.10;73.50;;;;;;5021244;28;20496;-84
2022/06/23 03:34:19;;;;;;;16.83;9.77;;;19.10;73.40;;;;;;5014899;28;20456;-81
2022/06/23 03:36:52;;;;;;;15.93;9.40;;;19.10;73.20;;;;;;5020294;28;20551;-82
2022/06/23 03:42:19;;;;;;;13.63;9.37;;;19.10;73.20;;;;;;5026012;28;20484;-81
2022/06/23 03:44:53;;;;;;;16.40;9.80;;;19.00;73.30;;;;;;5020245;28;20483;-82
2022/06/23 03:47:27;;;;;;;14.80;10.40;;;19.00;73.40;;;;;;5017928;28;20487;-82
2022/06/23 03:50:01;;;;;;;16.27;9.50;;;19.00;73.40;;;;;;5017355;28;20498;-80
2022/06/23 03:52:37;;;;;;;14.77;9.50;;;19.00;73.40;;;;;;5013577;28;20581;-80
2022/06/23 03:55:16;;;;;;;13.00;9.67;;;19.00;73.40;;;;;;5016879;28;20472;-82
2022/06/23 03:57:48;;;;;;;12.13;8.77;;;19.00;73.60;;;;;;5018701;28;20502;-81
2022/06/23 04:00:24;;;;;;;16.53;10.30;;;19.00;73.70;;;;;;5016913;28;20484;-83
2022/06/23 04:03:04;;;;;;;14.30;9.90;;;19.00;73.70;;;;;;5006943;28;20485;-82
2022/06/23 04:06:02;;;;;;;13.73;9.40;;;19.10;73.60;;;;;;5019825;28;20469;-83
2022/06/23 04:08:32;;;;;;;14.40;9.40;;;19.10;73.70;;;;;;5017091;28;20467;-82
2022/06/23 04:11:43;;;;;;;11.60;8.77;;;19.10;73.70;;;;;;5022998;28;21199;-83
2022/06/23 04:13:57;;;;;;;11.93;8.17;;;19.20;73.80;;;;;;5015484;28;20464;-84
2022/06/23 04:16:26;;;;;;;17.47;10.03;;;19.20;73.90;;;;;;5015789;28;20473;-83
2022/06/23 04:18:54;;;;;;;16.63;10.37;;;19.30;73.70;;;;;;5016450;28;20506;-83
2022/06/23 04:21:28;;;;;;;19.23;10.10;;;19.30;73.80;;;;;;5021187;28;20908;-84
2022/06/23 04:24:00;;;;;;;13.53;9.50;;;19.30;73.80;;;;;;5019860;28;20474;-83
2022/06/23 04:26:33;;;;;;;15.80;9.10;;;19.40;74.00;;;;;;5018292;28;20462;-83
2022/06/23 04:29:09;;;;;;;16.80;9.50;;;19.40;74.10;;;;;;5019928;28;20501;-84
2022/06/23 04:31:41;;;;;;;19.20;10.63;;;19.50;74.20;;;;;;5012579;28;20516;-82
2022/06/23 04:34:19;;;;;;;16.20;9.63;;;19.60;74.20;;;;;;5019832;28;20461;-82
2022/06/23 04:36:48;;;;;;;14.63;9.50;;;19.80;74.20;;;;;;5016573;28;20492;-82
2022/06/23 04:39:24;;;;;;;13.20;8.73;;;19.90;74.20;;;;;;5015254;28;20467;-83
2022/06/23 04:41:58;;;;;;;14.80;10.00;;;20.00;74.20;;;;;;5020147;28;20483;-82
2022/06/23 04:44:29;;;;;;;18.60;10.13;;;20.10;74.20;;;;;;5020047;28;20465;-82
2022/06/23 04:47:00;;;;;;;12.20;9.23;;;20.20;74.20;;;;;;5026524;28;20493;-81
2022/06/23 04:49:36;;;;;;;16.37;9.97;;;20.40;74.30;;;;;;5001440;28;20535;-81
2022/06/23 04:52:13;;;;;;;14.40;9.27;;;20.50;74.20;;;;;;5023352;28;20480;-81
2022/06/23 04:54:47;;;;;;;15.77;9.80;;;20.70;74.20;;;;;;5026903;28;20458;-82
2022/06/23 04:57:19;;;;;;;14.57;10.60;;;20.80;74.20;;;;;;5025118;28;20473;-81
2022/06/23 04:59:50;;;;;;;15.30;10.77;;;21.00;74.10;;;;;;5018286;28;20816;-81
2022/06/23 05:02:26;;;;;;;16.10;10.60;;;21.10;74.10;;;;;;5021817;28;20986;-82
2022/06/23 05:05:01;;;;;;;13.30;9.93;;;21.30;74.20;;;;;;5019202;28;20478;-81
2022/06/23 05:07:34;;;;;;;16.60;10.97;;;21.40;74.10;;;;;;5018100;28;20475;-82
2022/06/23 05:10:07;;;;;;;16.20;9.53;;;21.60;74.10;;;;;;5013207;28;20458;-81
2022/06/23 05:12:38;;;;;;;14.50;10.60;;;21.70;73.90;;;;;;5017940;28;20488;-82
2022/06/23 05:15:16;;;;;;;14.47;10.20;;;21.90;73.90;;;;;;5017694;28;20491;-81
2022/06/23 05:17:50;;;;;;;18.50;12.00;;;22.00;73.60;;;;;;5018592;28;20455;-81
2022/06/23 05:20:24;;;;;;;20.53;11.07;;;22.00;73.60;;;;;;5020199;28;20498;-81
2022/06/23 05:22:53;;;;;;;16.17;11.07;;;22.00;73.70;;;;;;5022628;28;20478;-81
2022/06/23 05:25:34;;;;;;;15.53;12.00;;;22.10;73.80;;;;;;5023675;28;20562;-82
2022/06/23 05:28:08;;;;;;;20.67;11.17;;;22.30;73.80;;;;;;5026119;28;20450;-82
2022/06/23 05:30:40;;;;;;;18.33;11.90;;;22.40;73.70;;;;;;5015221;28;20471;-81
2022/06/23 05:33:15;;;;;;;19.57;11.10;;;22.50;73.60;;;;;;5023475;28;20484;-82
2022/06/23 05:35:47;;;;;;;17.10;11.30;;;22.60;73.80;;;;;;5019864;28;20465;-82
2022/06/23 05:38:30;;;;;;;17.80;10.77;;;22.70;74.30;;;;;;5023919;28;20825;-82
2022/06/23 05:41:02;;;;;;;12.77;10.67;;;23.00;75.20;;;;;;5020193;28;21251;-82
2022/06/23 05:43:35;;;;;;;13.33;11.30;;;23.40;75.30;;;;;;5006521;28;20836;-81
2022/06/23 05:46:05;;;;;;;17.33;11.20;;;24.20;74.10;;;;;;5013730;28;20560;-82
2022/06/23 05:48:39;;;;;;;15.73;11.30;;;25.20;72.30;;;;;;5022342;28;20485;-82
2022/06/23 05:51:15;;;;;;;15.20;10.90;;;26.30;70.30;;;;;;5027798;28;20466;-82
2022/06/23 05:53:57;;;;;;;18.97;10.17;;;27.20;68.60;;;;;;5020622;28;20481;-82
2022/06/23 05:56:33;;;;;;;16.30;10.77;;;28.00;67.20;;;;;;5019548;28;20501;-82
2022/06/23 05:59:04;;;;;;;14.30;10.67;;;28.80;65.80;;;;;;5026623;28;20474;-82
2022/06/23 06:01:37;;;;;;;12.80;10.00;;;29.40;64.60;;;;;;5022168;28;20481;-82
2022/06/23 06:04:14;;;;;;;17.87;11.70;;;30.00;63.50;;;;;;5017187;28;20482;-82
2022/06/23 06:06:45;;;;;;;13.60;10.60;;;30.40;62.50;;;;;;5027180;28;20477;-83
2022/06/23 06:09:36;;;;;;;15.80;10.10;;;30.60;61.60;;;;;;5022577;28;20482;-82
2022/06/23 06:12:07;;;;;;;13.60;10.20;;;30.60;61.00;;;;;;5022278;28;20482;-82
2022/06/23 06:14:40;;;;;;;19.07;10.87;;;30.10;61.20;;;;;;5020325;28;21033;-82
2022/06/23 06:17:18;;;;;;;14.37;10.50;;;29.60;61.50;;;;;;5020591;28;20478;-82
2022/06/23 06:19:48;;;;;;;12.60;10.30;;;29.10;61.90;;;;;;5022801;28;20478;-82
2022/06/23 06:22:35;;;;;;;12.30;9.67;;;28.70;62.40;;;;;;5025121;28;20495;-82
2022/06/23 06:25:07;;;;;;;17.53;11.30;;;28.30;62.80;;;;;;5015491;28;20825;-82
2022/06/23 06:27:35;;;;;;;15.07;10.73;;;28.00;63.30;;;;;;5024936;28;20455;-82
2022/06/23 06:30:05;;;;;;;11.47;9.70;;;27.60;63.70;;;;;;5023557;28;20449;-82
2022/06/23 06:32:35;;;;;;;13.43;9.80;;;27.30;64.10;;;;;;5021319;28;21221;-82
2022/06/23 06:35:15;;;;;;;17.73;10.33;;;27.00;64.40;;;;;;5020175;28;20470;-82
2022/06/23 06:37:45;;;;;;;15.50;10.20;;;26.70;64.80;;;;;;5022089;28;20472;-81
2022/06/23 06:40:15;;;;;;;14.80;10.00;;;26.40;65.30;;;;;;5019323;28;20490;-80
2022/06/23 06:42:48;;;;;;;17.37;11.20;;;26.20;65.60;;;;;;5026017;28;20488;-81
2022/06/23 06:45:22;;;;;;;13.30;10.30;;;25.90;66.20;;;;;;5021458;28;21158;-80
2022/06/23 06:47:50;;;;;;;17.83;10.40;;;25.70;66.70;;;;;;5019812;28;20450;-80
2022/06/23 06:50:34;;;;;;;16.83;11.07;;;25.60;67.10;;;;;;5017855;28;20460;-80
2022/06/23 06:53:07;;;;;;;13.90;9.80;;;25.40;67.40;;;;;;4997190;28;20506;-81
2022/06/23 06:55:42;;;;;;;19.43;11.07;;;25.30;67.80;;;;;;5023003;28;20449;-80
2022/06/23 06:58:15;;;;;;;16.97;10.97;;;25.20;68.20;;;;;;5023865;28;20460;-81
2022/06/23 07:00:50;;;;;;;18.83;11.07;;;25.20;68.70;;;;;;5012366;28;20481;-80
2022/06/23 07:03:23;;;;;;;16.30;11.23;;;25.10;68.90;;;;;;5020512;28;20467;-81
2022/06/23 07:05:55;;;;;;;16.07;10.63;;;25.00;69.20;;;;;;5023130;28;20475;-80
2022/06/23 07:08:27;;;;;;;19.37;10.83;;;25.00;69.50;;;;;;5021970;28;20481;-81
2022/06/23 07:11:02;;;;;;;15.93;10.17;;;24.90;69.70;;;;;;5021013;28;20452;-81
2022/06/23 07:13:36;;;;;;;13.33;9.60;;;24.90;70.00;;;;;;5017485;28;20477;-81
2022/06/23 07:16:11;;;;;;;14.97;9.40;;;24.80;70.30;;;;;;5019955;28;21064;-81
2022/06/23 07:18:48;;;;;;;16.30;10.13;;;24.80;70.60;;;;;;5018441;28;20463;-80
2022/06/23 07:21:21;;;;;;;14.57;9.73;;;24.80;70.80;;;;;;5021347;28;20705;-80
2022/06/23 07:23:53;;;;;;;19.30;9.27;;;24.80;71.10;;;;;;5013480;28;20482;-82
2022/06/23 07:26:36;;;;;;;15.37;10.13;;;25.00;71.50;;;;;;5020209;28;20465;-81
2022/06/23 07:29:12;;;;;;;20.30;10.00;;;25.10;71.40;;;;;;5021275;28;21368;-83
2022/06/23 07:31:48;;;;;;;11.30;9.37;;;25.20;71.20;;;;;;5017445;28;20484;-81
2022/06/23 07:34:19;;;;;;;20.90;11.13;;;25.40;71.20;;;;;;5019396;28;20461;-80
2022/06/23 07:36:53;;;;;;;15.83;9.60;;;25.50;71.10;;;;;;5016189;28;20457;-78
2022/06/23 07:39:24;;;;;;;20.63;9.80;;;25.60;71.00;;;;;;5015145;28;20454;-78
2022/06/23 07:41:59;;;;;;;16.67;10.37;;;25.70;70.80;;;;;;5020263;28;20484;-80
2022/06/23 07:44:31;;;;;;;19.13;10.50;;;25.70;70.70;;;;;;5020379;28;20484;-79
2022/06/23 07:47:01;;;;;;;21.60;9.43;;;25.60;70.60;;;;;;5017643;28;21236;-80
2022/06/23 07:49:30;;;;;;;25.77;10.93;;;25.50;70.60;;;;;;4998133;28;20486;-79
2022/06/23 07:51:59;;;;;;;17.37;10.57;;;25.50;70.70;;;;;;5020723;28;22661;-80
2022/06/23 07:54:34;;;;;;;14.23;9.43;;;25.50;70.90;;;;;;5017637;28;20566;-80
2022/06/23 07:57:04;;;;;;;27.07;10.63;;;25.50;70.90;;;;;;5022558;28;20463;-80
2022/06/23 07:59:37;;;;;;;18.03;9.20;;;25.50;71.00;;;;;;5016940;28;20471;-79
2022/06/23 08:02:10;;;;;;;11.70;8.07;;;25.50;71.10;;;;;;4997085;28;20486;-79
2022/06/23 08:04:50;;;;;;;15.10;8.30;;;25.50;71.20;;;;;;5014899;28;20480;-79
2022/06/23 08:07:19;;;;;;;14.47;6.80;;;25.50;71.20;;;;;;5019554;28;20821;-79
2022/06/23 08:09:51;;;;;;;14.20;6.63;;;25.50;71.30;;;;;;5019602;28;20460;-79
2022/06/23 08:18:18;;;;;;;11.07;6.07;;;25.50;71.40;;;;;;5017876;28;20469;-79
2022/06/23 08:20:53;;;;;;;15.50;6.83;;;25.50;71.50;;;;;;5016372;28;20469;-78
2022/06/23 08:23:23;;;;;;;22.47;7.33;;;25.50;71.50;;;;;;5018100;28;20475;-78
2022/06/23 08:25:51;;;;;;;13.40;5.93;;;25.60;71.50;;;;;;5017556;28;20460;-78
2022/06/23 08:28:21;;;;;;;15.20;5.50;;;25.60;71.40;;;;;;5018279;28;20457;-78
2022/06/23 08:30:56;;;;;;;19.23;6.40;;;25.70;71.40;;;;;;5019700;28;20811;-78
2022/06/23 08:33:25;;;;;;;17.50;6.10;;;25.80;71.40;;;;;;5023202;28;20843;-78
2022/06/23 08:35:55;;;;;;;15.90;5.80;;;25.80;71.40;;;;;;5018566;28;20448;-78
2022/06/23 08:38:29;;;;;;;15.53;6.93;;;25.80;71.20;;;;;;5016854;28;20461;-78
2022/06/23 08:41:17;;;;;;;15.20;5.60;;;25.90;71.20;;;;;;5018336;28;20481;-78
2022/06/23 08:43:53;;;;;;;9.07;5.23;;;25.90;70.90;;;;;;5017150;28;20487;-78
2022/06/23 08:46:29;;;;;;;12.93;6.30;;;25.90;70.80;;;;;;5016981;28;20479;-78
2022/06/23 08:49:06;;;;;;;24.20;6.83;;;25.90;70.80;;;;;;5016744;28;20837;-78
2022/06/23 08:51:43;;;;;;;10.77;5.10;;;25.90;70.80;;;;;;5014380;28;20459;-78
2022/06/23 08:54:25;;;;;;;10.57;4.90;;;26.00;70.50;;;;;;5018607;28;20464;-78
2022/06/23 08:57:03;;;;;;;10.97;5.07;;;26.00;70.50;;;;;;5017556;28;20464;-79
2022/06/23 08:59:41;;;;;;;13.30;5.83;;;26.10;70.50;;;;;;5022449;28;20724;-79
2022/06/23 09:02:15;;;;;;;10.40;5.13;;;26.10;70.50;;;;;;5017653;28;20491;-79
2022/06/23 09:05:09;;;;;;;14.47;5.70;;;26.20;70.30;;;;;;5025554;28;20962;-79
2022/06/23 09:07:53;;;;;;;18.53;5.67;;;26.20;70.00;;;;;;5014770;28;20576;-78
2022/06/23 09:10:33;;;;;;;16.03;5.50;;;26.20;69.90;;;;;;5027947;28;20452;-79
2022/06/23 09:13:09;;;;;;;13.73;5.67;;;26.10;69.80;;;;;;5029715;28;21099;-78
2022/06/23 09:15:56;;;;;;;14.23;5.30;;;26.10;69.80;;;;;;5028664;28;20484;-79
2022/06/23 09:19:14;;;;;;;14.83;4.37;;;26.20;69.90;;;;;;5026148;28;20473;-79
2022/06/23 09:22:21;;;;;;;11.73;5.37;;;26.30;69.70;;;;;;5024839;28;20484;-79
2022/06/23 09:24:58;;;;;;;10.73;4.00;;;26.30;69.70;;;;;;5019404;28;20457;-79
2022/06/23 09:27:52;;;;;;;8.80;4.30;;;26.40;69.40;;;;;;5016995;28;20512;-79
2022/06/23 09:30:33;;;;;;;9.77;4.40;;;26.40;69.10;;;;;;5017730;28;20474;-79
2022/06/23 09:33:17;;;;;;;14.10;4.50;;;26.50;69.00;;;;;;5021093;28;20481;-79
2022/06/23 09:36:12;;;;;;;14.37;5.40;;;26.50;68.90;;;;;;5017080;28;20583;-79
2022/06/23 09:38:56;;;;;;;16.50;5.00;;;26.50;68.60;;;;;;5012063;28;20466;-79
2022/06/23 09:41:40;;;;;;;11.57;4.23;;;26.50;68.40;;;;;;5011203;28;20476;-79
2022/06/23 09:44:46;;;;;;;15.13;5.23;;;26.60;68.20;;;;;;5018897;28;20459;-79
2022/06/23 09:47:33;;;;;;;12.43;4.93;;;26.60;68.10;;;;;;5016500;28;20537;-79
2022/06/23 09:50:29;;;;;;;11.20;4.60;;;26.60;67.80;;;;;;5013809;28;20462;-79
2022/06/23 09:53:26;;;;;;;11.27;4.10;;;26.60;67.80;;;;;;5017828;28;21008;-79
2022/06/23 09:56:32;;;;;;;11.27;4.53;;;26.60;67.80;;;;;;5020035;28;21154;-78
2022/06/23 09:59:25;;;;;;;12.90;4.40;;;26.70;67.60;;;;;;5014717;28;20466;-79
2022/06/23 10:01:58;;;;;;;8.30;4.27;;;26.70;67.50;;;;;;5020059;28;20487;-79
2022/06/23 10:04:41;;;;;;;14.27;4.90;;;26.80;67.50;;;;;;5018915;28;20468;-79
2022/06/23 10:07:36;;;;;;;14.67;5.00;;;26.80;67.50;;;;;;5018032;28;20553;-79
2022/06/23 10:10:23;;;;;;;12.03;4.67;;;26.80;67.30;;;;;;5003113;28;21005;-79
2022/06/23 10:13:14;;;;;;;8.17;4.33;;;26.90;67.20;;;;;;5021103;28;20493;-79
2022/06/23 10:15:58;;;;;;;19.97;4.33;;;26.90;67.10;;;;;;5006547;28;20480;-78
2022/06/23 10:18:51;;;;;;;12.40;4.80;;;26.80;67.10;;;;;;5015596;28;20581;-78
2022/06/23 10:21:31;;;;;;;9.20;3.77;;;26.90;67.00;;;;;;5016163;28;20483;-78
2022/06/23 10:24:33;;;;;;;9.80;4.00;;;26.90;67.00;;;;;;5019532;28;20500;-78
2022/06/23 10:27:26;;;;;;;13.20;4.30;;;26.90;66.80;;;;;;5019728;28;20456;-78
2022/06/23 10:30:05;;;;;;;8.93;4.03;;;26.90;66.80;;;;;;5018906;28;20974;-78
2022/06/23 10:33:29;;;;;;;9.30;3.50;;;26.90;66.70;;;;;;5015194;28;21428;-78
2022/06/23 10:36:27;;;;;;;7.53;3.87;;;26.90;66.70;;;;;;4997988;28;21258;-79
2022/06/23 10:39:05;;;;;;;9.57;3.67;;;26.90;66.70;;;;;;5016941;28;20465;-78
2022/06/23 10:41:57;;;;;;;11.67;4.53;;;27.00;66.50;;;;;;5002246;28;20471;-79
2022/06/23 10:44:46;;;;;;;6.93;3.30;;;27.10;66.20;;;;;;5012557;28;21048;-78
2022/06/23 10:47:30;;;;;;;10.30;3.57;;;27.10;66.00;;;;;;5020010;28;21014;-78
2022/06/23 10:50:30;;;;;;;12.73;3.63;;;27.10;65.70;;;;;;5019339;28;20458;-78
2022/06/23 10:53:33;;;;;;;9.53;3.80;;;27.20;65.80;;;;;;5021976;28;20487;-78
2022/06/23 10:56:31;;;;;;;6.83;3.50;;;27.30;65.60;;;;;;5015153;28;20495;-78
2022/06/23 10:59:28;;;;;;;10.67;3.47;;;27.40;65.30;;;;;;5014954;28;20452;-78
2022/06/23 11:02:20;;;;;;;16.47;4.13;;;27.50;64.80;;;;;;5014689;28;20537;-78
2022/06/23 11:05:18;;;;;;;8.70;4.13;;;27.60;64.40;;;;;;5015174;28;20918;-78
2022/06/23 11:07:59;;;;;;;9.77;3.93;;;27.70;64.20;;;;;;4985021;28;20477;-78
2022/06/23 11:10:40;;;;;;;9.40;4.30;;;27.80;64.00;;;;;;5019435;28;20466;-78
2022/06/23 11:13:18;;;;;;;9.20;4.20;;;27.80;63.80;;;;;;5019242;28;20489;-78
2022/06/23 11:15:56;;;;;;;8.20;4.07;;;27.90;63.70;;;;;;5017035;28;20515;-78
2022/06/23 11:18:35;;;;;;;6.83;3.30;;;28.00;63.40;;;;;;5021422;28;20462;-78
2022/06/23 11:21:19;;;;;;;13.03;4.50;;;28.00;62.90;;;;;;5018067;28;20514;-78
2022/06/23 11:23:52;;;;;;;7.37;3.50;;;28.10;62.80;;;;;;5017664;28;20500;-78
2022/06/23 11:26:32;;;;;;;8.10;3.20;;;28.10;62.60;;;;;;5015562;28;20475;-77
2022/06/23 11:29:19;;;;;;;9.73;3.83;;;28.10;61.90;;;;;;5004357;28;20490;-77
2022/06/23 11:32:00;;;;;;;9.03;4.00;;;28.10;62.10;;;;;;5014254;28;20586;-78
2022/06/23 11:34:51;;;;;;;9.77;3.60;;;28.20;62.00;;;;;;5016581;28;20467;-78
2022/06/23 11:37:33;;;;;;;7.97;3.87;;;28.20;61.80;;;;;;5018021;28;20972;-78
2022/06/23 11:40:24;;;;;;;8.37;3.83;;;28.20;61.70;;;;;;5013987;28;20472;-78
2022/06/23 11:43:02;;;;;;;12.93;4.00;;;28.20;61.30;;;;;;5020182;28;20561;-78
2022/06/23 11:45:43;;;;;;;6.40;3.30;;;28.30;61.00;;;;;;5013948;28;20465;-78
2022/06/23 11:48:37;;;;;;;13.03;3.90;;;28.30;60.90;;;;;;5019574;28;21042;-78
2022/06/23 11:51:20;;;;;;;11.83;3.47;;;28.30;60.70;;;;;;5012737;28;20467;-78
2022/06/23 11:53:59;;;;;;;11.43;3.50;;;28.30;60.60;;;;;;5013493;28;20486;-78
2022/06/23 11:56:40;;;;;;;12.30;3.70;;;28.30;60.50;;;;;;5018072;28;20514;-78
2022/06/23 11:59:20;;;;;;;8.07;3.20;;;28.30;60.50;;;;;;5015336;28;20464;-78
2022/06/23 12:02:00;;;;;;;7.77;3.50;;;28.40;60.60;;;;;;5017149;28;20492;-79
2022/06/23 12:04:52;;;;;;;10.60;3.90;;;28.40;60.60;;;;;;5015106;28;20822;-78
2022/06/23 12:07:43;;;;;;;5.80;3.27;;;28.40;60.40;;;;;;5013120;28;20464;-78
2022/06/23 12:10:16;;;;;;;11.10;3.50;;;28.40;60.40;;;;;;5016308;28;20447;-81
2022/06/23 12:12:47;;;;;;;10.33;4.00;;;28.40;60.20;;;;;;5014200;28;20494;-78
2022/06/23 12:15:20;;;;;;;8.53;3.40;;;28.40;60.10;;;;;;5010564;28;20962;-78
2022/06/23 12:17:52;;;;;;;7.93;3.90;;;28.40;60.10;;;;;;5014872;28;20486;-78
2022/06/23 12:20:28;;;;;;;14.30;4.70;;;28.50;59.60;;;;;;5013677;28;21258;-78
2022/06/23 12:23:02;;;;;;;9.13;3.87;;;28.50;59.40;;;;;;5013930;28;20483;-78
2022/06/23 12:25:36;;;;;;;8.20;3.70;;;28.50;59.60;;;;;;5016199;28;20451;-78
2022/06/23 12:28:13;;;;;;;6.37;3.23;;;28.50;59.60;;;;;;5017863;28;20471;-78
2022/06/23 12:30:46;;;;;;;8.10;3.80;;;28.60;59.60;;;;;;5014179;28;20474;-78
2022/06/23 12:33:22;;;;;;;8.20;3.20;;;28.70;59.60;;;;;;5017998;28;20481;-78
2022/06/23 12:36:00;;;;;;;8.37;3.40;;;28.80;59.60;;;;;;5015716;28;20449;-78
2022/06/23 12:38:35;;;;;;;6.40;3.47;;;28.90;59.40;;;;;;5018140;28;20456;-78
2022/06/23 12:41:08;;;;;;;11.87;3.70;;;28.90;59.30;;;;;;5017436;28;21006;-78
2022/06/23 12:43:43;;;;;;;9.37;3.17;;;28.90;59.10;;;;;;5012092;28;20494;-78
2022/06/23 12:46:20;;;;;;;7.10;3.30;;;28.90;59.00;;;;;;5017496;28;20511;-79
2022/06/23 12:49:11;;;;;;;7.60;2.93;;;29.00;58.90;;;;;;5020710;28;20452;-78
2022/06/23 12:51:47;;;;;;;6.80;3.20;;;29.10;58.70;;;;;;5019205;28;20453;-78
2022/06/23 12:54:52;;;;;;;6.70;2.97;;;29.10;58.40;;;;;;5017738;28;20450;-78
2022/06/23 12:57:37;;;;;;;6.87;3.03;;;29.10;58.20;;;;;;5008906;28;20478;-78
2022/06/23 13:00:09;;;;;;;7.43;3.30;;;29.20;58.20;;;;;;5022092;28;20465;-78
2022/06/23 13:02:42;;;;;;;7.10;2.93;;;29.20;58.00;;;;;;5020297;28;20495;-78
2022/06/23 13:05:16;;;;;;;5.90;2.97;;;29.20;58.20;;;;;;5021961;28;20458;-78
2022/06/23 13:07:53;;;;;;;8.60;3.77;;;29.30;57.70;;;;;;5020625;28;21068;-78
2022/06/23 13:10:27;;;;;;;7.83;3.70;;;29.30;57.50;;;;;;5017197;28;20469;-78
2022/06/23 13:13:04;;;;;;;6.20;3.00;;;29.20;57.50;;;;;;5018207;28;21964;-78
2022/06/23 13:15:40;;;;;;;7.83;3.10;;;29.20;57.40;;;;;;5017615;28;21034;-78
2022/06/23 13:18:17;;;;;;;8.97;3.20;;;29.20;57.50;;;;;;5020066;28;20478;-78
2022/06/23 13:20:49;;;;;;;7.90;2.90;;;29.20;57.80;;;;;;5017150;28;20541;-78
2022/06/23 13:23:21;;;;;;;8.93;2.90;;;29.20;57.90;;;;;;5021488;28;20892;-78
2022/06/23 13:25:54;;;;;;;8.90;3.10;;;29.30;57.80;;;;;;5021085;28;20462;-78
2022/06/23 13:28:31;;;;;;;6.47;3.30;;;29.40;57.40;;;;;;5021689;28;20466;-78
2022/06/23 13:31:05;;;;;;;14.30;3.80;;;29.50;57.60;;;;;;5018184;28;20506;-78
2022/06/23 13:33:38;;;;;;;11.07;3.20;;;29.50;57.70;;;;;;5004445;28;20474;-78
2022/06/23 13:36:16;;;;;;;12.47;4.13;;;29.60;57.30;;;;;;5019853;28;20459;-78
2022/06/23 13:38:54;;;;;;;7.90;3.10;;;29.60;56.80;;;;;;5021005;28;21006;-78